General Aviation Weather

Text Reports

Enter one or more of the following location identifiers separated by a space:

Zip Code, Four-Character ICAO or Three-Character IATA airport codes.

METAR - Aviation Routine Weather Report
EDLW - Dortmund,
Updated at 8:20 AM GMT on December 27, 2014 (9:20 AM CET):
METAR EDLW 270820Z 09012KT 2000 -SN BKN005 01/M01 Q1000
TAF - Terminal Area Forecast
EDLW - Dortmund,
Updated at 8:20 AM GMT on December 27, 2014 (9:20 AM CET):
TAF EDLW 270525Z 2706/2806 13012KT 6000 BKN030
     BECMG 2707/2710 08015G25KT
     TEMPO 2707/2718 4000 SNRA BKN006
     PROB30 TEMPO 2708/2718 1200 SN BKN004
     BECMG 2801/2804 05010KT=
Decoded:
ID: EDLW   Dortmund/Wicked, DL
REPORT TIME: 27  5:25
VALID TIME: 27 December AT 06:00Z to 28 December AT 06:00Z.
INITIAL WX
   WINDS: 130 AT 12
   VISIBILITY: 3.7 MILES
   COMMENTS: BKN03 000 FTEU11 KAWN 270533 RRX TAF EDLW 270525Z 2706/2806 13012KT 6000 BKN030 
WX BECOMING FROM 07Z TO 10Z
   WINDS: 80 AT 15 GUST 25
TEMPORARY WX FROM 07Z TO 18Z
   VISIBILITY: 2.5 MILES
   WEATHER: SNRA
   CLOUDS: 6 BKN
30% PROBABILITY OF WX 
TEMPORARY WX FROM 08Z TO 18Z
   VISIBILITY: 0.7 MILES
   WEATHER: SN
   CLOUDS: 4 BKN
WX BECOMING FROM 01Z TO 04Z
   WINDS: 50 AT 10
   COMMENTS: = 

PIREP - Pilot Weather Report
EDLW - Dortmund,
Updated at 8:20 AM GMT on December 27, 2014 (9:20 AM CET):
No PIREP is currently available for this location.
AIRMET - Airmens Meteorological Information
EDLW - Dortmund,
Updated at 8:20 AM GMT on December 27, 2014 (9:20 AM CET):
No AIRMET is currently available for this location.
SIGMET - Significant Meteorological Information
EDLW - Dortmund,
Updated at 8:20 AM GMT on December 27, 2014 (9:20 AM CET):
No SIGMET is currently available for this location.
NOTAM - Notice to Airmen
EDLW - Dortmund,
Updated at 8:20 AM GMT on December 27, 2014 (9:20 AM CET):
No NOTAM is currently available for this location.
Forecast Area
EDLW - Dortmund,
Updated at 8:20 AM GMT on December 27, 2014 (9:20 AM CET):
No NOTAM is currently available for this location.
Aviation Weather Maps